createdAt,value
2024-02-02T00:01:12.513Z,7.07
2024-02-02T00:06:16.985Z,5.88
2024-02-02T00:11:20.159Z,5.97
2024-02-02T00:16:23.651Z,6.78
2024-02-02T00:21:28.232Z,8.25
2024-02-02T00:26:31.242Z,6.20
2024-02-02T00:31:34.263Z,8.52
2024-02-02T00:36:38.639Z,6.13
2024-02-02T00:41:41.637Z,6.65
2024-02-02T00:46:44.626Z,5.70
2024-02-02T00:51:49.166Z,6.63
2024-02-02T00:56:52.282Z,7.53
2024-02-02T01:01:55.302Z,7.32
2024-02-02T01:06:59.754Z,7.75
2024-02-02T01:12:03.259Z,7.18
2024-02-02T01:17:06.678Z,6.20
2024-02-02T01:22:11.278Z,8.98
2024-02-02T01:27:14.952Z,10.07
2024-02-02T01:32:18.580Z,9.95
2024-02-02T01:37:22.925Z,9.93
2024-02-02T01:42:26.233Z,10.05
2024-02-02T01:47:29.397Z,11.50
2024-02-02T01:52:34.094Z,11.32
2024-02-02T01:57:37.478Z,13.25
2024-02-02T02:02:40.520Z,10.77
2024-02-02T02:07:45.575Z,11.50
2024-02-02T02:12:51.726Z,12.90
2024-02-02T02:17:55.541Z,13.20
2024-02-02T02:23:00.189Z,12.90
2024-02-02T02:28:03.298Z,15.65
2024-02-02T02:33:07.375Z,13.23
2024-02-02T02:38:11.782Z,11.02
2024-02-02T02:43:14.769Z,19.33
2024-02-02T02:48:17.901Z,18.98
2024-02-02T02:53:22.397Z,15.57
2024-02-02T02:58:25.583Z,16.65
2024-02-02T03:03:28.866Z,14.40
2024-02-02T03:08:33.265Z,11.40
2024-02-02T03:13:36.509Z,10.13
2024-02-02T03:18:40.592Z,11.63
2024-02-02T03:23:46.538Z,8.90
2024-02-02T03:28:49.620Z,8.35
2024-02-02T03:33:52.773Z,10.55
2024-02-02T03:38:57.261Z,10.30
2024-02-02T03:44:00.361Z,7.60
2024-02-02T03:49:03.601Z,6.10
2024-02-02T03:54:08.201Z,10.35
2024-02-02T03:59:12.082Z,10.07
2024-02-02T04:04:15.395Z,9.55
2024-02-02T04:09:19.943Z,10.43
2024-02-02T04:14:23.525Z,9.35
2024-02-02T04:19:26.653Z,7.88
2024-02-02T04:24:31.265Z,8.77
2024-02-02T04:29:34.427Z,10.32
2024-02-02T04:34:37.709Z,10.25
2024-02-02T04:39:42.252Z,7.43
2024-02-02T04:44:45.249Z,10.05
2024-02-02T04:49:48.347Z,9.38
2024-02-02T04:54:55.060Z,9.98
2024-02-02T04:59:58.083Z,10.77
2024-02-02T05:05:01.110Z,10.68
2024-02-02T05:10:06.993Z,12.25
2024-02-02T05:15:10.844Z,12.65
2024-02-02T05:20:14.128Z,7.88
2024-02-02T05:25:18.537Z,13.85
2024-02-02T05:30:22.772Z,13.35
2024-02-02T05:35:25.863Z,7.65
2024-02-02T05:40:32.884Z,15.10
2024-02-02T05:45:37.308Z,13.80
2024-02-02T05:50:40.386Z,12.90
2024-02-02T05:55:47.338Z,10.07
2024-02-02T06:00:50.684Z,12.52
2024-02-02T06:05:53.862Z,10.52
2024-02-02T06:10:58.324Z,9.32
2024-02-02T06:16:01.322Z,8.77
2024-02-02T06:21:04.650Z,12.52
2024-02-02T06:26:09.115Z,12.77
2024-02-02T06:31:12.168Z,11.82
2024-02-02T06:36:15.227Z,12.35
2024-02-02T06:41:19.578Z,10.70
2024-02-02T06:46:22.646Z,7.90
2024-02-02T06:51:25.758Z,10.02
2024-02-02T06:56:38.625Z,9.43
2024-02-02T07:01:41.744Z,10.43
2024-02-02T07:06:45.532Z,7.85
2024-02-02T07:11:59.502Z,9.90
2024-02-02T07:17:02.975Z,7.97
2024-02-02T07:22:29.588Z,7.97
2024-02-02T07:27:54.160Z,6.38
2024-02-02T07:32:57.570Z,5.63
2024-02-02T07:38:06.671Z,5.28
2024-02-02T07:43:11.087Z,3.95
2024-02-02T07:48:14.177Z,6.70
2024-02-02T07:53:17.388Z,4.35
2024-02-02T07:58:22.754Z,4.70
2024-02-02T08:03:28.568Z,6.60
2024-02-02T08:08:33.513Z,5.43
2024-02-02T08:13:38.331Z,5.93
2024-02-02T08:18:42.321Z,4.20
2024-02-02T08:23:45.586Z,4.50
2024-02-02T08:28:54.771Z,4.65
2024-02-02T08:33:58.660Z,4.65
2024-02-02T08:39:01.709Z,4.43
2024-02-02T08:44:09.259Z,7.40
2024-02-02T08:49:34.254Z,4.50
2024-02-02T08:54:47.547Z,5.60
2024-02-02T08:59:53.986Z,6.47
2024-02-02T09:05:07.636Z,5.93
2024-02-02T09:10:44.733Z,5.28
2024-02-02T09:15:50.237Z,5.28
2024-02-02T09:20:53.827Z,3.63
2024-02-02T09:25:57.103Z,7.05
2024-02-02T09:31:02.741Z,7.72
2024-02-02T09:36:07.934Z,5.10
2024-02-02T09:41:38.504Z,6.45
2024-02-02T09:46:51.003Z,7.40
2024-02-02T09:57:09.985Z,6.90
2024-02-02T10:02:28.922Z,5.60
2024-02-02T10:07:44.360Z,6.35
2024-02-02T10:12:57.867Z,9.80
2024-02-02T10:18:26.490Z,7.53
2024-02-02T10:23:58.573Z,8.50
2024-02-02T10:29:14.483Z,7.97
2024-02-02T10:34:32.135Z,10.05
2024-02-02T10:39:50.567Z,9.70
2024-02-02T10:45:05.173Z,9.60
2024-02-02T10:50:21.737Z,9.68
2024-02-02T10:55:41.373Z,10.07
2024-02-02T11:00:53.326Z,10.93
2024-02-02T11:06:09.566Z,9.00
2024-02-02T11:11:15.325Z,10.13
2024-02-02T11:16:44.204Z,9.10
2024-02-02T11:22:08.463Z,12.15
2024-02-02T11:27:17.384Z,10.73
2024-02-02T11:32:40.407Z,8.75
2024-02-02T11:37:57.650Z,11.30
2024-02-02T11:43:01.300Z,14.32
2024-02-02T11:48:06.254Z,9.50
2024-02-02T11:53:17.035Z,13.55
2024-02-02T11:58:21.423Z,13.05
2024-02-02T12:03:32.249Z,11.10
2024-02-02T12:08:43.838Z,9.55
2024-02-02T12:13:49.117Z,11.57
2024-02-02T12:18:52.278Z,11.55
2024-02-02T12:23:56.839Z,10.77
2024-02-02T12:28:59.904Z,9.90
2024-02-02T12:34:03.448Z,10.07
2024-02-02T12:39:08.154Z,12.13
2024-02-02T12:44:11.344Z,14.60
2024-02-02T12:49:14.644Z,12.00
2024-02-02T12:54:20.247Z,12.75
2024-02-02T12:59:25.068Z,11.88
2024-02-02T13:04:28.285Z,13.05
2024-02-02T13:09:34.080Z,15.27
2024-02-02T13:14:37.990Z,14.73
2024-02-02T13:19:43.914Z,13.95
2024-02-02T13:24:51.441Z,14.20
2024-02-02T13:29:57.873Z,17.52
2024-02-02T13:35:02.066Z,21.60
2024-02-02T13:40:10.518Z,16.88
2024-02-02T13:45:16.305Z,17.95
2024-02-02T13:50:21.002Z,17.85
2024-02-02T13:55:30.183Z,18.02
2024-02-02T14:00:33.893Z,25.73
2024-02-02T14:05:37.614Z,20.73
2024-02-02T14:10:46.701Z,18.40
2024-02-02T14:15:52.019Z,20.85
2024-02-02T14:20:55.074Z,25.63
2024-02-02T14:26:10.270Z,19.75
2024-02-02T14:31:13.236Z,26.48
2024-02-02T14:36:16.525Z,24.55
2024-02-02T14:41:20.962Z,18.17
2024-02-02T14:46:23.996Z,28.10
2024-02-02T14:51:26.959Z,19.83
2024-02-02T14:56:32.228Z,21.23
2024-02-02T15:01:35.331Z,21.00
2024-02-02T15:06:40.139Z,24.10
2024-02-02T15:11:45.561Z,25.77
2024-02-02T15:16:48.737Z,20.52
2024-02-02T15:21:53.600Z,23.70
2024-02-02T15:26:58.222Z,19.88
2024-02-02T15:32:01.516Z,20.58
2024-02-02T15:37:04.729Z,20.23
2024-02-02T15:42:09.358Z,22.42
2024-02-02T15:47:12.472Z,21.83
2024-02-02T15:52:15.477Z,17.52
2024-02-02T15:57:19.835Z,23.48
2024-02-02T16:02:22.925Z,16.58
2024-02-02T16:07:27.124Z,19.48
2024-02-02T16:12:32.949Z,14.73
2024-02-02T16:17:38.115Z,21.30
2024-02-02T16:22:42.430Z,23.52
2024-02-02T16:27:46.861Z,13.88
2024-02-02T16:32:50.183Z,18.90
2024-02-02T16:37:53.281Z,16.08
2024-02-02T16:42:57.684Z,15.82
2024-02-02T16:48:00.888Z,20.98
2024-02-02T16:53:04.265Z,20.02
2024-02-02T16:58:09.329Z,17.27
2024-02-02T17:03:13.136Z,18.58
2024-02-02T17:08:16.484Z,24.02
2024-02-02T17:13:22.420Z,26.20
2024-02-02T17:18:25.587Z,17.52
2024-02-02T17:23:29.044Z,24.85
2024-02-02T17:28:33.471Z,16.35
2024-02-02T17:33:36.689Z,27.40
2024-02-02T17:38:41.488Z,21.58
2024-02-02T17:43:48.153Z,18.13
2024-02-02T17:48:51.228Z,21.95
2024-02-02T17:53:55.575Z,27.83
2024-02-02T17:58:59.975Z,17.67
2024-02-02T18:04:03.184Z,31.65
2024-02-02T18:09:07.352Z,19.10
2024-02-02T18:14:11.736Z,24.13
2024-02-02T18:19:14.905Z,18.75
2024-02-02T18:24:18.572Z,25.98
2024-02-02T18:29:23.002Z,22.52
2024-02-02T18:34:26.102Z,19.20
2024-02-02T18:39:29.287Z,24.02
2024-02-02T18:44:33.778Z,22.25
2024-02-02T18:49:36.859Z,25.15
2024-02-02T18:54:40.409Z,21.45
2024-02-02T18:59:45.045Z,20.90
2024-02-02T19:04:48.153Z,25.85
2024-02-02T19:09:51.268Z,31.10
2024-02-02T19:14:58.914Z,26.02
2024-02-02T19:20:02.668Z,29.27
2024-02-02T19:25:06.652Z,23.65
2024-02-02T19:30:12.761Z,31.75
2024-02-02T19:35:15.878Z,28.80
2024-02-02T19:40:18.877Z,29.52
2024-02-02T19:45:23.334Z,30.95
2024-02-02T19:50:26.476Z,26.55
2024-02-02T19:55:31.159Z,27.40
2024-02-02T20:00:35.615Z,30.77
2024-02-02T20:05:38.741Z,30.45
2024-02-02T20:10:43.565Z,22.02
2024-02-02T20:15:48.338Z,22.60
2024-02-02T20:20:54.737Z,25.38
2024-02-02T20:25:57.870Z,29.40
2024-02-02T20:31:03.876Z,23.90
2024-02-02T20:36:07.742Z,27.60
2024-02-02T20:41:11.007Z,21.45
2024-02-02T20:46:15.567Z,25.02
2024-02-02T20:51:19.143Z,24.73
2024-02-02T20:56:22.265Z,29.48
2024-02-02T21:01:26.857Z,29.08
2024-02-02T21:06:30.012Z,25.80
2024-02-02T21:11:33.324Z,21.08
2024-02-02T21:16:37.933Z,30.63
2024-02-02T21:21:42.140Z,21.35
2024-02-02T21:26:45.126Z,21.67
2024-02-02T21:31:49.894Z,17.73
2024-02-02T21:36:52.958Z,27.33
2024-02-02T21:41:56.015Z,29.90
2024-02-02T21:47:00.751Z,34.95
2024-02-02T21:52:03.805Z,32.45
2024-02-02T21:57:07.110Z,31.25
2024-02-02T22:02:11.575Z,34.75
2024-02-02T22:07:14.650Z,23.52
2024-02-02T22:12:17.808Z,33.42
2024-02-02T22:17:22.819Z,38.97
2024-02-02T22:22:25.879Z,40.85
2024-02-02T22:27:31.462Z,41.70
2024-02-02T22:32:38.752Z,27.48
2024-02-02T22:37:45.033Z,43.10
2024-02-02T22:42:48.187Z,36.38
2024-02-02T22:47:52.638Z,38.85
2024-02-02T22:52:55.688Z,36.22
2024-02-02T22:57:58.728Z,40.65
2024-02-02T23:03:03.317Z,36.90
2024-02-02T23:08:06.942Z,32.80
2024-02-02T23:13:09.994Z,33.22
2024-02-02T23:18:14.577Z,31.83
2024-02-02T23:23:20.242Z,43.90
2024-02-02T23:28:23.388Z,39.25
2024-02-02T23:33:27.861Z,40.05
2024-02-02T23:38:30.948Z,44.72
2024-02-02T23:43:34.175Z,27.45
2024-02-02T23:48:38.880Z,41.15
2024-02-02T23:53:41.913Z,37.55
2024-02-02T23:58:45.043Z,26.10
